createdAt,value
2018-05-08T00:08:49.103Z,0.0
2018-05-08T00:19:01.332Z,0.0
2018-05-08T00:29:46.615Z,0.0
2018-05-08T00:40:01.346Z,0.0
2018-05-08T01:00:32.304Z,0.0
2018-05-08T01:10:46.600Z,0.0
2018-05-08T01:21:01.257Z,0.0
2018-05-08T01:31:46.630Z,0.0
2018-05-08T01:41:58.408Z,0.0
2018-05-08T01:52:10.552Z,0.0
2018-05-08T02:02:55.959Z,0.0
2018-05-08T02:13:41.831Z,0.0
2018-05-08T02:24:27.404Z,0.0
2018-05-08T02:35:13.143Z,0.0
2018-05-08T02:45:59.042Z,0.0
2018-05-08T02:56:16.479Z,0.0
2018-05-08T03:06:30.746Z,0.0
2018-05-08T03:16:44.836Z,4.0
2018-05-08T03:26:56.000Z,16.0
2018-05-08T03:37:45.171Z,68.0
2018-05-08T03:48:02.432Z,196.0
2018-05-08T03:58:16.998Z,428.0
2018-05-08T04:09:03.655Z,744.0
2018-05-08T04:19:17.782Z,1076.0
2018-05-08T04:29:32.131Z,1388.0
2018-05-08T04:39:46.536Z,1700.0
2018-05-08T04:50:31.958Z,1992.0
2018-05-08T05:01:19.739Z,2252.0
2018-05-08T05:12:05.691Z,2492.0
2018-05-08T05:22:51.474Z,2728.0
2018-05-08T05:33:06.022Z,2940.0
2018-05-08T05:43:51.163Z,3160.0
2018-05-08T05:54:37.260Z,3384.0
2018-05-08T06:04:48.883Z,3624.0
2018-05-08T06:15:41.764Z,3904.0
2018-05-08T06:25:55.410Z,4152.0
2018-05-08T06:36:07.536Z,4404.0
2018-05-08T06:57:33.348Z,6216.0
2018-05-08T07:08:18.722Z,7080.0
2018-05-08T07:19:06.580Z,11604.0
2018-05-08T07:29:52.378Z,12324.0
2018-05-08T07:40:40.970Z,17024.0
2018-05-08T07:50:55.374Z,17504.0
2018-05-08T08:01:43.662Z,20640.0
2018-05-08T08:12:32.393Z,24672.0
2018-05-08T08:22:47.088Z,26560.0
2018-05-08T08:33:01.362Z,31168.0
2018-05-08T08:43:49.204Z,30944.0
2018-05-08T09:04:52.408Z,36608.0
2018-05-08T09:15:09.875Z,38912.0
2018-05-08T09:26:03.953Z,42560.0
2018-05-08T09:36:19.505Z,47200.0
2018-05-08T09:46:33.367Z,49920.0
2018-05-08T09:56:44.880Z,52288.0
2018-05-08T10:06:57.912Z,47712.0
2018-05-08T10:17:13.296Z,53600.0
2018-05-08T10:27:28.028Z,55424.0
2018-05-08T10:37:41.923Z,56960.0
2018-05-08T10:47:56.154Z,59040.0
2018-05-08T10:58:12.700Z,55552.0
2018-05-08T11:08:27.716Z,55456.0
2018-05-08T11:18:47.644Z,56960.0
2018-05-08T11:29:01.796Z,58624.0
2018-05-08T11:39:18.682Z,54176.0
2018-05-08T11:49:30.712Z,58496.0
2018-05-08T11:59:45.713Z,57376.0
2018-05-08T12:10:00.399Z,56832.0
2018-05-08T12:20:14.839Z,53344.0
2018-05-08T12:30:29.043Z,55136.0
2018-05-08T12:40:43.116Z,49696.0
2018-05-08T12:51:32.447Z,51200.0
2018-05-08T13:01:47.133Z,42112.0
2018-05-08T13:11:59.567Z,40416.0
2018-05-08T13:22:46.763Z,43808.0
2018-05-08T13:33:32.605Z,17792.0
2018-05-08T13:44:18.660Z,16064.0
2018-05-08T13:54:32.863Z,17184.0
2018-05-08T14:04:48.518Z,17280.0
2018-05-08T14:15:00.504Z,42656.0
2018-05-08T14:25:45.934Z,25472.0
2018-05-08T14:35:57.521Z,18816.0
2018-05-08T14:46:13.979Z,17696.0
2018-05-08T14:56:27.829Z,17152.0
2018-05-08T15:07:13.419Z,16864.0
2018-05-08T15:17:59.059Z,7968.0
2018-05-08T15:28:44.750Z,6852.0
2018-05-08T15:38:59.471Z,6612.0
2018-05-08T15:49:13.767Z,6344.0
2018-05-08T15:59:27.589Z,6188.0
2018-05-08T16:09:41.750Z,5940.0
2018-05-08T16:21:08.933Z,5860.0
2018-05-08T16:31:24.697Z,5432.0
2018-05-08T16:41:38.343Z,5168.0
2018-05-08T16:51:53.296Z,4828.0
2018-05-08T17:32:33.188Z,3424.0
2018-05-08T18:11:17.196Z,1872.0
2018-05-08T18:24:41.112Z,1464.0
2018-05-08T18:35:28.631Z,1068.0
2018-05-08T18:46:26.063Z,720.0
2018-05-08T18:58:26.843Z,416.0
2018-05-08T19:09:28.070Z,176.0
2018-05-08T19:19:43.041Z,60.0
2018-05-08T19:29:58.252Z,16.0
2018-05-08T19:40:16.990Z,0.0
2018-05-08T19:51:50.662Z,0.0
2018-05-08T20:14:09.238Z,0.0
2018-05-08T20:24:58.013Z,0.0
2018-05-08T20:35:21.920Z,0.0
2018-05-08T20:45:42.597Z,0.0
2018-05-08T20:56:06.333Z,0.0
2018-05-08T21:06:54.429Z,0.0
2018-05-08T21:17:10.276Z,0.0
2018-05-08T21:28:06.951Z,0.0
2018-05-08T21:39:27.795Z,0.0
2018-05-08T22:03:18.346Z,0.0
2018-05-08T22:13:31.744Z,0.0
2018-05-08T22:23:46.143Z,0.0
2018-05-08T22:34:01.011Z,0.0
2018-05-08T22:44:46.539Z,0.0
2018-05-08T22:55:00.673Z,0.0
2018-05-08T23:05:14.813Z,0.0
2018-05-08T23:15:29.148Z,0.0
2018-05-08T23:25:43.236Z,0.0
2018-05-08T23:35:57.657Z,0.0
2018-05-08T23:46:11.738Z,0.0
2018-05-08T23:56:25.915Z,0.0
